Time;durP1;ratioP1;P1;durP2;ratioP2;P2;SDS_P1;SDS_P2;PMS_P1;PMS_P2;Temp;Humidity;BMP_temperature;BMP_pressure;BME280_temperature;BME280_humidity;BME280_pressure;Samples;Min_cycle;Max_cycle;Signal;HPM_P1;HPM_P2
2024/03/18 00:00:17;;;;;;;8.52;5.03;;;;;;;;;;5050424;28;20055;-53
2024/03/18 00:02:46;;;;;;;7.22;3.83;;;;;;;;;;5050164;28;20049;-53
2024/03/18 00:05:14;;;;;;;6.22;3.88;;;;;;;;;;5050173;28;20053;-51
2024/03/18 00:07:41;;;;;;;7.05;3.45;;;;;;;;;;5049714;28;20049;-53
2024/03/18 00:10:10;;;;;;;6.53;3.00;;;;;;;;;;5049845;28;20044;-55
2024/03/18 00:12:37;;;;;;;5.47;2.85;;;;;;;;;;5049933;28;20060;-53
2024/03/18 00:15:06;;;;;;;4.78;2.28;;;;;;;;;;5038470;28;20114;-57
2024/03/18 00:17:35;;;;;;;5.88;2.40;;;;;;;;;;5049169;28;20497;-56
2024/03/18 00:20:05;;;;;;;8.55;2.30;;;;;;;;;;5049633;28;20492;-59
2024/03/18 00:22:32;;;;;;;4.25;2.22;;;;;;;;;;5049527;28;20052;-51
2024/03/18 00:24:58;;;;;;;7.13;3.67;;;;;;;;;;5041687;28;20053;-52
2024/03/18 00:27:25;;;;;;;6.32;2.88;;;;;;;;;;5044980;28;20051;-55
2024/03/18 00:29:53;;;;;;;7.43;3.10;;;;;;;;;;5049801;28;20436;-56
2024/03/18 00:32:19;;;;;;;6.28;2.47;;;;;;;;;;5049499;28;20764;-55
2024/03/18 00:34:48;;;;;;;6.38;2.53;;;;;;;;;;5043660;28;20045;-55
2024/03/18 00:37:15;;;;;;;7.30;2.60;;;;;;;;;;5045244;28;20041;-55
2024/03/18 00:39:43;;;;;;;7.75;3.22;;;;;;;;;;5044648;28;20055;-51
2024/03/18 00:42:09;;;;;;;6.55;3.13;;;;;;;;;;5047544;28;20052;-52
2024/03/18 00:44:37;;;;;;;8.60;3.90;;;;;;;;;;5049209;28;20554;-56
2024/03/18 00:47:04;;;;;;;7.45;3.63;;;;;;;;;;5048840;28;20056;-55
2024/03/18 00:49:31;;;;;;;5.32;2.90;;;;;;;;;;5049072;28;20041;-56
2024/03/18 00:51:59;;;;;;;6.72;2.88;;;;;;;;;;5048331;28;20048;-55
2024/03/18 00:54:26;;;;;;;5.00;1.95;;;;;;;;;;5045618;28;20076;-57
2024/03/18 00:56:53;;;;;;;3.90;1.90;;;;;;;;;;5048743;28;20573;-56
2024/03/18 00:59:20;;;;;;;4.55;2.10;;;;;;;;;;5049197;28;20067;-55
2024/03/18 01:01:47;;;;;;;3.47;1.75;;;;;;;;;;5039778;28;20390;-55
2024/03/18 01:04:14;;;;;;;3.50;1.50;;;;;;;;;;5048731;28;20045;-54
2024/03/18 01:06:41;;;;;;;4.88;1.67;;;;;;;;;;5045948;28;20064;-54
2024/03/18 01:09:10;;;;;;;3.17;1.73;;;;;;;;;;5046636;28;20049;-55
2024/03/18 01:11:36;;;;;;;4.88;2.33;;;;;;;;;;5048667;28;20051;-56
2024/03/18 01:14:03;;;;;;;3.92;1.67;;;;;;;;;;5047023;28;20068;-55
2024/03/18 01:16:30;;;;;;;3.58;1.42;;;;;;;;;;5048910;28;20060;-55
2024/03/18 01:18:57;;;;;;;4.90;2.33;;;;;;;;;;5048862;28;20063;-56
2024/03/18 01:21:24;;;;;;;3.72;1.60;;;;;;;;;;5046101;28;20041;-56
2024/03/18 01:23:51;;;;;;;2.83;1.58;;;;;;;;;;5048720;28;20432;-56
2024/03/18 01:26:20;;;;;;;3.15;1.35;;;;;;;;;;5048779;28;20117;-54
2024/03/18 01:28:46;;;;;;;3.85;1.48;;;;;;;;;;5048618;28;20059;-54
2024/03/18 01:31:13;;;;;;;4.43;1.58;;;;;;;;;;5038347;28;20041;-53
2024/03/18 01:33:40;;;;;;;9.13;2.33;;;;;;;;;;5045764;28;20057;-53
2024/03/18 01:36:07;;;;;;;5.75;1.60;;;;;;;;;;5041712;28;20132;-53
2024/03/18 01:38:36;;;;;;;4.43;1.60;;;;;;;;;;5052156;28;20045;-55
2024/03/18 01:41:03;;;;;;;4.93;1.90;;;;;;;;;;5052410;28;20049;-52
2024/03/18 01:43:32;;;;;;;4.07;1.85;;;;;;;;;;5052513;28;20103;-55
2024/03/18 01:45:59;;;;;;;3.20;1.65;;;;;;;;;;5052583;28;20049;-55
2024/03/18 01:48:26;;;;;;;5.30;2.00;;;;;;;;;;5051904;28;20424;-55
2024/03/18 01:50:53;;;;;;;3.40;1.65;;;;;;;;;;5052388;28;20492;-52
2024/03/18 01:53:22;;;;;;;3.80;2.20;;;;;;;;;;5052391;28;20060;-53
2024/03/18 01:55:49;;;;;;;5.63;2.55;;;;;;;;;;5052176;28;20037;-54
2024/03/18 01:58:19;;;;;;;6.07;2.97;;;;;;;;;;5051832;28;20178;-55
2024/03/18 02:00:48;;;;;;;5.55;2.83;;;;;;;;;;5052404;28;20492;-56
2024/03/18 02:03:15;;;;;;;6.72;2.72;;;;;;;;;;5052081;28;20055;-53
2024/03/18 02:05:42;;;;;;;6.72;2.70;;;;;;;;;;5052276;28;20053;-54
2024/03/18 02:08:09;;;;;;;5.25;2.50;;;;;;;;;;5051562;28;20083;-54
2024/03/18 02:10:36;;;;;;;4.20;2.42;;;;;;;;;;5052071;28;20041;-55
2024/03/18 02:13:04;;;;;;;5.38;2.38;;;;;;;;;;5052115;28;20056;-53
2024/03/18 02:15:32;;;;;;;5.43;2.25;;;;;;;;;;5047515;28;20051;-51
2024/03/18 02:18:01;;;;;;;4.88;2.10;;;;;;;;;;5050273;28;20041;-51
2024/03/18 02:20:28;;;;;;;4.15;1.90;;;;;;;;;;5046352;28;20102;-56
2024/03/18 02:22:56;;;;;;;4.03;1.88;;;;;;;;;;5041296;28;20075;-55
2024/03/18 02:25:23;;;;;;;3.03;1.38;;;;;;;;;;5050604;28;20053;-55
2024/03/18 02:27:50;;;;;;;4.63;1.83;;;;;;;;;;5050504;28;20048;-54
2024/03/18 02:30:17;;;;;;;3.00;1.55;;;;;;;;;;5051365;28;20560;-53
2024/03/18 02:32:44;;;;;;;4.32;2.33;;;;;;;;;;5041539;28;20480;-55
2024/03/18 02:35:16;;;;;;;4.25;2.00;;;;;;;;;;5043080;28;20044;-55
2024/03/18 02:37:43;;;;;;;4.90;1.63;;;;;;;;;;5040986;28;20041;-57
2024/03/18 02:40:12;;;;;;;5.85;2.00;;;;;;;;;;5051750;28;20048;-53
2024/03/18 02:42:41;;;;;;;4.50;1.95;;;;;;;;;;5047307;28;20732;-55
2024/03/18 02:45:09;;;;;;;4.88;2.50;;;;;;;;;;5047176;28;20049;-55
2024/03/18 02:47:36;;;;;;;5.97;2.00;;;;;;;;;;5049688;28;20425;-54
2024/03/18 02:50:04;;;;;;;3.72;1.88;;;;;;;;;;5050007;28;20056;-56
2024/03/18 02:52:31;;;;;;;3.47;1.50;;;;;;;;;;5051284;28;20037;-55
2024/03/18 02:54:58;;;;;;;3.47;1.50;;;;;;;;;;5051136;28;20048;-55
2024/03/18 02:57:26;;;;;;;2.97;1.40;;;;;;;;;;5051003;28;20053;-52
2024/03/18 02:59:53;;;;;;;4.05;1.58;;;;;;;;;;5051537;28;20048;-56
2024/03/18 03:02:20;;;;;;;4.95;2.10;;;;;;;;;;5051361;28;20503;-53
2024/03/18 03:04:47;;;;;;;5.00;1.98;;;;;;;;;;5051437;28;20499;-57
2024/03/18 03:07:14;;;;;;;5.95;2.10;;;;;;;;;;5050984;28;20049;-58
2024/03/18 03:09:42;;;;;;;3.97;2.17;;;;;;;;;;5050678;28;20052;-57
2024/03/18 03:12:10;;;;;;;5.35;2.33;;;;;;;;;;5051245;28;20366;-55
2024/03/18 03:14:41;;;;;;;5.28;2.30;;;;;;;;;;5050657;28;20127;-56
2024/03/18 03:17:08;;;;;;;6.55;2.28;;;;;;;;;;5050775;28;20146;-52
2024/03/18 03:19:35;;;;;;;8.05;3.13;;;;;;;;;;5050746;28;20416;-55
2024/03/18 03:22:03;;;;;;;5.43;2.13;;;;;;;;;;5050436;28;20051;-54
2024/03/18 03:24:30;;;;;;;5.10;2.00;;;;;;;;;;5050410;28;20067;-54
2024/03/18 03:26:57;;;;;;;4.70;2.20;;;;;;;;;;5050415;28;20475;-56
2024/03/18 03:29:24;;;;;;;5.95;2.65;;;;;;;;;;5049211;28;20465;-55
2024/03/18 03:31:52;;;;;;;5.70;2.55;;;;;;;;;;5051004;28;20456;-54
2024/03/18 03:34:19;;;;;;;6.05;2.17;;;;;;;;;;5050590;28;20053;-53
2024/03/18 03:36:46;;;;;;;6.13;2.67;;;;;;;;;;5050152;28;20045;-54
2024/03/18 03:39:13;;;;;;;5.13;2.20;;;;;;;;;;5050673;28;20053;-56
2024/03/18 03:41:41;;;;;;;5.72;2.58;;;;;;;;;;5050605;28;20056;-54
2024/03/18 03:44:08;;;;;;;6.47;2.72;;;;;;;;;;5050498;28;20052;-57
2024/03/18 03:46:34;;;;;;;6.88;2.38;;;;;;;;;;5050586;28;20052;-51
2024/03/18 03:49:03;;;;;;;4.70;2.35;;;;;;;;;;5049046;28;20053;-54
2024/03/18 03:51:30;;;;;;;4.93;1.83;;;;;;;;;;5044064;28;20148;-56
2024/03/18 03:53:57;;;;;;;5.78;2.35;;;;;;;;;;5049683;28;20068;-54
2024/03/18 03:56:24;;;;;;;4.95;1.90;;;;;;;;;;5049958;28;20352;-55
2024/03/18 03:58:53;;;;;;;5.40;2.10;;;;;;;;;;5049110;28;20049;-53
2024/03/18 04:01:21;;;;;;;3.63;1.88;;;;;;;;;;5049322;28;20041;-54
2024/03/18 04:03:48;;;;;;;5.90;2.88;;;;;;;;;;5048226;28;20392;-56
2024/03/18 04:06:16;;;;;;;4.25;2.08;;;;;;;;;;5049766;28;20060;-56
2024/03/18 04:08:43;;;;;;;4.95;1.88;;;;;;;;;;5049416;28;20064;-57
2024/03/18 04:11:10;;;;;;;5.45;1.90;;;;;;;;;;5049260;28;20051;-54
2024/03/18 04:13:37;;;;;;;4.00;1.63;;;;;;;;;;5049895;28;20053;-56
2024/03/18 04:16:05;;;;;;;5.55;2.17;;;;;;;;;;5049802;28;20540;-52
2024/03/18 04:18:32;;;;;;;5.53;2.85;;;;;;;;;;5049414;28;20094;-55
2024/03/18 04:21:00;;;;;;;5.20;1.90;;;;;;;;;;5049801;28;20499;-56
2024/03/18 04:23:32;;;;;;;4.35;1.83;;;;;;;;;;5048459;28;20048;-51
2024/03/18 04:26:00;;;;;;;4.60;1.70;;;;;;;;;;5045822;28;20051;-52
2024/03/18 04:28:27;;;;;;;4.80;2.03;;;;;;;;;;5042917;28;20048;-53
2024/03/18 04:30:54;;;;;;;3.90;1.50;;;;;;;;;;5048991;28;20048;-54
2024/03/18 04:33:21;;;;;;;4.20;1.70;;;;;;;;;;5049588;28;20068;-54
2024/03/18 04:35:48;;;;;;;5.70;2.20;;;;;;;;;;5048772;28;20440;-55
2024/03/18 04:38:15;;;;;;;3.78;1.63;;;;;;;;;;5048098;28;20517;-55
2024/03/18 04:40:43;;;;;;;5.18;2.58;;;;;;;;;;5048939;28;20448;-53
2024/03/18 04:43:10;;;;;;;6.35;2.15;;;;;;;;;;5049552;28;20488;-52
2024/03/18 04:45:38;;;;;;;4.32;1.75;;;;;;;;;;5049023;28;20049;-55
2024/03/18 04:48:05;;;;;;;3.65;1.50;;;;;;;;;;5049076;28;20045;-54
2024/03/18 04:50:32;;;;;;;6.63;2.92;;;;;;;;;;5049268;28;20045;-57
2024/03/18 04:52:59;;;;;;;7.00;1.90;;;;;;;;;;5049218;28;20045;-57
2024/03/18 04:55:26;;;;;;;4.55;1.55;;;;;;;;;;5048201;28;20060;-54
2024/03/18 04:57:55;;;;;;;4.82;1.70;;;;;;;;;;5049304;28;20056;-51
2024/03/18 05:00:24;;;;;;;4.43;1.83;;;;;;;;;;5049173;28;20045;-53
2024/03/18 05:02:52;;;;;;;5.30;1.75;;;;;;;;;;5045642;28;20049;-56
2024/03/18 05:05:19;;;;;;;4.45;1.88;;;;;;;;;;5049080;28;20049;-56
2024/03/18 05:07:46;;;;;;;6.10;2.28;;;;;;;;;;5048539;28;20052;-57
2024/03/18 05:10:16;;;;;;;3.65;1.77;;;;;;;;;;5048616;28;20408;-55
2024/03/18 05:12:43;;;;;;;4.93;2.25;;;;;;;;;;5051814;28;20049;-53
2024/03/18 05:15:12;;;;;;;5.78;1.90;;;;;;;;;;5053170;28;20478;-56
2024/03/18 05:17:38;;;;;;;5.35;1.67;;;;;;;;;;5053201;28;20045;-52
2024/03/18 05:20:11;;;;;;;4.70;1.80;;;;;;;;;;5053104;28;20052;-53
2024/03/18 05:22:38;;;;;;;4.10;1.95;;;;;;;;;;5053103;28;20411;-57
2024/03/18 05:25:09;;;;;;;5.82;2.60;;;;;;;;;;5052649;28;20132;-57
2024/03/18 05:27:36;;;;;;;8.05;2.30;;;;;;;;;;5052606;28;20423;-55
2024/03/18 05:30:04;;;;;;;5.25;1.90;;;;;;;;;;5052575;28;20055;-56
2024/03/18 05:32:33;;;;;;;4.15;1.67;;;;;;;;;;5049454;28;20068;-55
2024/03/18 05:35:00;;;;;;;4.53;1.80;;;;;;;;;;5048053;28;20107;-55
2024/03/18 05:37:28;;;;;;;6.53;1.83;;;;;;;;;;5045603;28;20049;-54
2024/03/18 05:39:55;;;;;;;3.90;1.77;;;;;;;;;;5052743;28;20061;-56
2024/03/18 05:42:22;;;;;;;4.65;1.80;;;;;;;;;;5052735;28;20147;-55
2024/03/18 05:44:49;;;;;;;5.00;1.98;;;;;;;;;;5050446;28;20053;-57
2024/03/18 05:47:16;;;;;;;3.53;1.67;;;;;;;;;;5050772;28;20091;-56
2024/03/18 05:49:44;;;;;;;4.30;1.92;;;;;;;;;;5052595;28;20049;-55
2024/03/18 05:52:11;;;;;;;4.97;1.67;;;;;;;;;;5052229;28;20102;-52
2024/03/18 05:54:38;;;;;;;5.93;1.95;;;;;;;;;;5052383;28;20381;-53
2024/03/18 05:57:05;;;;;;;4.72;1.60;;;;;;;;;;5052202;28;20060;-55
2024/03/18 05:59:32;;;;;;;4.35;2.05;;;;;;;;;;5052152;28;20049;-54
2024/03/18 06:01:59;;;;;;;4.72;1.55;;;;;;;;;;5052307;28;20045;-55
2024/03/18 06:04:26;;;;;;;5.35;1.80;;;;;;;;;;5052147;28;20049;-55
2024/03/18 06:06:54;;;;;;;3.97;2.08;;;;;;;;;;5052026;28;20375;-56
2024/03/18 06:09:21;;;;;;;4.18;1.73;;;;;;;;;;5051436;28;20053;-55
2024/03/18 06:11:49;;;;;;;4.78;1.83;;;;;;;;;;5052147;28;20049;-55
2024/03/18 06:14:16;;;;;;;4.97;1.40;;;;;;;;;;5052473;28;20136;-53
2024/03/18 06:16:43;;;;;;;5.00;1.88;;;;;;;;;;5052207;28;20337;-56
2024/03/18 06:19:14;;;;;;;4.57;1.58;;;;;;;;;;5052151;28;20436;-54
2024/03/18 06:21:42;;;;;;;;;;;;;;;;;;5052403;28;20037;-56
2024/03/18 06:24:20;;;;;;;3.13;1.40;;;;;;;;;;5052024;28;20023;-56
2024/03/18 06:26:46;;;;;;;3.03;1.40;;;;;;;;;;5051681;28;20144;-56
2024/03/18 06:29:13;;;;;;;5.30;1.70;;;;;;;;;;5052123;28;20140;-55
2024/03/18 06:31:40;;;;;;;4.75;1.80;;;;;;;;;;5050647;28;20045;-54
2024/03/18 06:34:07;;;;;;;3.85;1.60;;;;;;;;;;5049962;28;20076;-56
2024/03/18 06:36:35;;;;;;;4.72;1.45;;;;;;;;;;5051482;28;20306;-57
2024/03/18 06:39:02;;;;;;;2.70;1.25;;;;;;;;;;5051367;28;20367;-56
2024/03/18 06:41:31;;;;;;;3.13;1.50;;;;;;;;;;5051939;28;20492;-57
2024/03/18 06:43:58;;;;;;;4.28;1.50;;;;;;;;;;5051531;28;20496;-54
2024/03/18 06:46:25;;;;;;;4.30;1.40;;;;;;;;;;5052014;28;20404;-55
2024/03/18 06:48:52;;;;;;;4.07;1.60;;;;;;;;;;5051611;28;20559;-52
2024/03/18 06:51:19;;;;;;;5.32;1.75;;;;;;;;;;5051349;28;20053;-58
2024/03/18 06:53:46;;;;;;;5.65;1.70;;;;;;;;;;5051310;28;20045;-54
2024/03/18 06:56:13;;;;;;;3.35;1.75;;;;;;;;;;5051587;28;20045;-59
2024/03/18 06:58:41;;;;;;;3.92;1.70;;;;;;;;;;5050937;28;20445;-57
2024/03/18 07:01:09;;;;;;;6.00;1.50;;;;;;;;;;5051685;28;20457;-58
2024/03/18 07:03:37;;;;;;;4.88;1.80;;;;;;;;;;5051600;28;20095;-56
2024/03/18 07:06:05;;;;;;;4.10;1.90;;;;;;;;;;5051458;28;20103;-55
2024/03/18 07:08:33;;;;;;;4.15;1.60;;;;;;;;;;5051322;28;20056;-55
2024/03/18 07:11:00;;;;;;;6.43;2.53;;;;;;;;;;5051339;28;20045;-55
2024/03/18 07:13:27;;;;;;;5.55;1.88;;;;;;;;;;5050272;28;20147;-58
2024/03/18 07:15:58;;;;;;;4.47;1.85;;;;;;;;;;5044258;28;20045;-57
2024/03/18 07:18:25;;;;;;;6.05;1.92;;;;;;;;;;5050876;28;20415;-54
2024/03/18 07:20:53;;;;;;;5.70;2.22;;;;;;;;;;5050812;28;20408;-55
2024/03/18 07:23:22;;;;;;;3.78;1.70;;;;;;;;;;5051410;28;20582;-56
2024/03/18 07:25:50;;;;;;;4.45;1.50;;;;;;;;;;5050889;28;20053;-55
2024/03/18 07:28:17;;;;;;;5.18;1.60;;;;;;;;;;5049009;28;20106;-54
2024/03/18 07:30:47;;;;;;;3.78;1.40;;;;;;;;;;5050609;28;20053;-55
2024/03/18 07:33:15;;;;;;;4.70;2.15;;;;;;;;;;5050468;28;20090;-56
2024/03/18 07:35:42;;;;;;;5.07;1.90;;;;;;;;;;5049774;28;20049;-55
2024/03/18 07:38:09;;;;;;;3.35;1.50;;;;;;;;;;5044546;28;20049;-54
2024/03/18 07:40:36;;;;;;;4.65;1.75;;;;;;;;;;5041941;28;20045;-56
2024/03/18 07:43:05;;;;;;;4.05;1.75;;;;;;;;;;5045154;28;20574;-53
2024/03/18 07:45:32;;;;;;;3.65;1.80;;;;;;;;;;5043243;28;20412;-57
2024/03/18 07:48:04;;;;;;;3.63;1.80;;;;;;;;;;5036994;28;20049;-55
2024/03/18 07:50:34;;;;;;;5.47;1.95;;;;;;;;;;5039328;28;20107;-56
2024/03/18 07:53:01;;;;;;;4.03;2.00;;;;;;;;;;5050428;28;20048;-52
2024/03/18 07:55:28;;;;;;;4.72;1.80;;;;;;;;;;5050323;28;20297;-55
2024/03/18 07:57:55;;;;;;;4.65;1.83;;;;;;;;;;5049993;28;20481;-56
2024/03/18 08:00:22;;;;;;;4.18;1.40;;;;;;;;;;5049713;28;20044;-57
2024/03/18 08:02:49;;;;;;;5.03;1.80;;;;;;;;;;5047400;28;20037;-57
2024/03/18 08:05:16;;;;;;;3.90;1.83;;;;;;;;;;5040340;28;20048;-56
2024/03/18 08:07:44;;;;;;;3.75;1.80;;;;;;;;;;5049765;28;20055;-56
2024/03/18 08:10:11;;;;;;;5.63;1.90;;;;;;;;;;5049873;28;20052;-56
2024/03/18 08:12:38;;;;;;;6.53;2.47;;;;;;;;;;5044304;28;20045;-51
2024/03/18 08:15:07;;;;;;;4.65;1.92;;;;;;;;;;5048920;28;20107;-63
2024/03/18 08:17:34;;;;;;;4.72;2.03;;;;;;;;;;5049327;28;20053;-55
2024/03/18 08:20:01;;;;;;;4.78;1.85;;;;;;;;;;5050016;28;20087;-55
2024/03/18 08:22:28;;;;;;;5.60;1.92;;;;;;;;;;5042038;28;20507;-56
2024/03/18 08:24:56;;;;;;;3.83;1.50;;;;;;;;;;5049537;28;20061;-53
2024/03/18 08:27:25;;;;;;;5.63;1.60;;;;;;;;;;5048880;28;20053;-56
2024/03/18 08:29:53;;;;;;;3.33;1.63;;;;;;;;;;5050498;28;20072;-58
2024/03/18 08:32:20;;;;;;;4.28;1.60;;;;;;;;;;5046857;28;20147;-64
2024/03/18 08:34:47;;;;;;;5.57;2.15;;;;;;;;;;5041786;28;20063;-62
2024/03/18 08:37:14;;;;;;;5.13;1.83;;;;;;;;;;5043675;28;20067;-59
2024/03/18 08:39:41;;;;;;;4.55;1.52;;;;;;;;;;5036531;28;20072;-59
2024/03/18 08:42:11;;;;;;;4.63;1.33;;;;;;;;;;5034941;28;20053;-58
2024/03/18 08:44:38;;;;;;;3.85;1.60;;;;;;;;;;5049257;28;20067;-56
2024/03/18 08:47:05;;;;;;;5.15;1.40;;;;;;;;;;5046999;28;20132;-60
2024/03/18 08:49:32;;;;;;;4.82;1.55;;;;;;;;;;5049279;28;20053;-55
2024/03/18 08:51:59;;;;;;;3.42;1.55;;;;;;;;;;5049401;28;20053;-55
2024/03/18 08:54:26;;;;;;;3.65;1.30;;;;;;;;;;5049391;28;20052;-62
2024/03/18 08:56:53;;;;;;;3.58;1.30;;;;;;;;;;5048931;28;20136;-60
2024/03/18 08:59:22;;;;;;;4.40;1.85;;;;;;;;;;5048511;28;20076;-57
2024/03/18 09:01:49;;;;;;;4.22;1.50;;;;;;;;;;5048356;28;20041;-56
2024/03/18 09:04:16;;;;;;;7.95;1.83;;;;;;;;;;5048552;28;20048;-55
2024/03/18 09:06:43;;;;;;;5.47;2.08;;;;;;;;;;5049561;28;20045;-53
2024/03/18 09:09:11;;;;;;;2.90;1.40;;;;;;;;;;5044792;28;20045;-57
2024/03/18 09:11:38;;;;;;;4.05;1.77;;;;;;;;;;5044025;28;20053;-55
2024/03/18 09:14:05;;;;;;;5.30;1.88;;;;;;;;;;5048779;28;20052;-54
2024/03/18 09:16:34;;;;;;;4.63;1.83;;;;;;;;;;5048982;28;20098;-58
2024/03/18 09:19:01;;;;;;;4.85;2.10;;;;;;;;;;5049085;28;20059;-54
2024/03/18 09:21:28;;;;;;;4.05;1.80;;;;;;;;;;5041361;28;20519;-56
2024/03/18 09:23:55;;;;;;;6.03;2.05;;;;;;;;;;5049164;28;20041;-58
2024/03/18 09:26:22;;;;;;;6.35;2.70;;;;;;;;;;5049532;28;20416;-55
2024/03/18 09:28:49;;;;;;;6.18;2.17;;;;;;;;;;5048724;28;20352;-58
2024/03/18 09:31:16;;;;;;;8.25;3.38;;;;;;;;;;5049253;28;20049;-56
2024/03/18 09:33:44;;;;;;;6.70;2.70;;;;;;;;;;5049077;28;20425;-55
2024/03/18 09:36:11;;;;;;;12.40;3.72;;;;;;;;;;5049360;28;20412;-53
2024/03/18 09:38:38;;;;;;;8.23;2.92;;;;;;;;;;5049020;28;20053;-57
2024/03/18 09:41:06;;;;;;;6.93;2.50;;;;;;;;;;5048677;28;20356;-57
2024/03/18 09:43:34;;;;;;;6.38;3.10;;;;;;;;;;5048364;28;20052;-53
2024/03/18 09:46:02;;;;;;;4.65;2.50;;;;;;;;;;5049089;28;20041;-55
2024/03/18 09:48:31;;;;;;;5.43;2.45;;;;;;;;;;5048765;28;20115;-57
2024/03/18 09:51:00;;;;;;;5.60;2.53;;;;;;;;;;5048862;28;20056;-57
2024/03/18 09:53:29;;;;;;;11.80;4.22;;;;;;;;;;5048777;28;20415;-52
2024/03/18 09:55:56;;;;;;;5.25;2.47;;;;;;;;;;5048368;28;20110;-57
2024/03/18 09:58:23;;;;;;;6.15;2.25;;;;;;;;;;5042841;28;20093;-55
2024/03/18 10:00:50;;;;;;;8.35;2.47;;;;;;;;;;5047830;28;20049;-58
2024/03/18 10:03:17;;;;;;;8.80;2.65;;;;;;;;;;5052475;28;20438;-55
2024/03/18 10:05:45;;;;;;;7.05;2.40;;;;;;;;;;5052316;28;20056;-55
2024/03/18 10:08:15;;;;;;;5.10;2.08;;;;;;;;;;5052169;28;20053;-53
2024/03/18 10:10:44;;;;;;;5.07;2.10;;;;;;;;;;5052187;28;20049;-53
2024/03/18 10:13:11;;;;;;;5.50;2.20;;;;;;;;;;5052034;28;20045;-54
2024/03/18 10:15:39;;;;;;;4.70;1.65;;;;;;;;;;5052568;28;20045;-54
2024/03/18 10:18:10;;;;;;;4.72;1.85;;;;;;;;;;5044534;28;20480;-56
2024/03/18 10:20:38;;;;;;;4.43;1.38;;;;;;;;;;5047249;28;20630;-55
2024/03/18 10:23:06;;;;;;;2.97;1.20;;;;;;;;;;5051768;28;20459;-55
2024/03/18 10:25:34;;;;;;;3.95;1.40;;;;;;;;;;5051776;28;20053;-55
2024/03/18 10:28:05;;;;;;;6.13;2.00;;;;;;;;;;5048815;28;20140;-58
2024/03/18 10:30:32;;;;;;;6.07;2.65;;;;;;;;;;5035370;28;20471;-56
2024/03/18 10:32:59;;;;;;;4.65;1.42;;;;;;;;;;5047129;28;20041;-56
2024/03/18 10:35:27;;;;;;;5.03;1.70;;;;;;;;;;5034753;28;20053;-60
2024/03/18 10:37:57;;;;;;;5.50;1.48;;;;;;;;;;5039892;28;20048;-56
2024/03/18 10:40:34;;;;;;;2.83;1.10;;;;;;;;;;5051673;28;20061;-55
2024/03/18 10:43:04;;;;;;;3.92;1.20;;;;;;;;;;5051335;28;20045;-53
2024/03/18 10:45:32;;;;;;;4.32;1.20;;;;;;;;;;5041598;28;20045;-54
2024/03/18 10:48:05;;;;;;;5.57;2.60;;;;;;;;;;5043574;28;20049;-58
2024/03/18 10:50:33;;;;;;;3.65;1.35;;;;;;;;;;5046354;28;20099;-54
2024/03/18 10:53:01;;;;;;;5.53;1.50;;;;;;;;;;5051508;28;20045;-58
2024/03/18 10:55:30;;;;;;;4.10;2.00;;;;;;;;;;5049949;28;20072;-53
2024/03/18 10:57:59;;;;;;;5.70;2.20;;;;;;;;;;5051562;28;20360;-58
2024/03/18 11:00:29;;;;;;;5.70;2.17;;;;;;;;;;5052113;28;20052;-53
2024/03/18 11:02:58;;;;;;;7.18;2.17;;;;;;;;;;5052040;28;20443;-55
2024/03/18 11:05:27;;;;;;;5.03;2.17;;;;;;;;;;5051751;28;20480;-53
2024/03/18 11:07:55;;;;;;;3.97;1.70;;;;;;;;;;5052182;28;20057;-58
2024/03/18 11:10:24;;;;;;;9.02;2.13;;;;;;;;;;5030909;28;20045;-58
2024/03/18 11:12:51;;;;;;;5.70;1.98;;;;;;;;;;5031530;28;20111;-55
2024/03/18 11:15:19;;;;;;;5.32;1.92;;;;;;;;;;5032076;28;20433;-56
2024/03/18 11:17:50;;;;;;;5.80;2.05;;;;;;;;;;5031782;28;20050;-56
2024/03/18 11:20:19;;;;;;;5.53;1.92;;;;;;;;;;5050555;28;20136;-57
2024/03/18 11:22:55;;;;;;;6.05;1.90;;;;;;;;;;5051120;28;20056;-56
2024/03/18 11:25:25;;;;;;;3.25;1.30;;;;;;;;;;5051511;28;20463;-58
2024/03/18 11:27:53;;;;;;;2.75;1.27;;;;;;;;;;5051395;28;20045;-58
2024/03/18 11:30:31;;;;;;;3.95;1.48;;;;;;;;;;5051625;28;20488;-55
2024/03/18 11:33:09;;;;;;;7.28;1.60;;;;;;;;;;5051037;28;20049;-57
2024/03/18 11:35:39;;;;;;;2.42;1.20;;;;;;;;;;5050624;28;20064;-57
2024/03/18 11:38:06;;;;;;;6.15;2.72;;;;;;;;;;5059800;28;20420;-58
2024/03/18 11:40:37;;;;;;;4.82;1.60;;;;;;;;;;5051786;28;20094;-59
2024/03/18 11:43:05;;;;;;;4.03;1.35;;;;;;;;;;5051011;28;20053;-58
2024/03/18 11:45:32;;;;;;;4.07;1.77;;;;;;;;;;5051448;28;20357;-57
2024/03/18 11:48:06;;;;;;;6.18;2.00;;;;;;;;;;5050884;28;20075;-59
2024/03/18 11:50:34;;;;;;;4.20;1.75;;;;;;;;;;5056094;28;20508;-58
2024/03/18 11:53:04;;;;;;;4.45;2.13;;;;;;;;;;5054056;28;20080;-57
2024/03/18 11:55:34;;;;;;;7.10;2.08;;;;;;;;;;5050817;28;20060;-55
2024/03/18 11:58:01;;;;;;;4.35;1.85;;;;;;;;;;5050590;28;20048;-55
2024/03/18 12:00:28;;;;;;;5.20;2.63;;;;;;;;;;5050398;28;20055;-57
2024/03/18 12:02:55;;;;;;;5.03;2.28;;;;;;;;;;5050539;28;20087;-58
2024/03/18 12:05:23;;;;;;;4.70;2.20;;;;;;;;;;5050464;28;20044;-53
2024/03/18 12:07:51;;;;;;;4.18;2.17;;;;;;;;;;5050076;28;20056;-58
2024/03/18 12:10:21;;;;;;;8.77;2.30;;;;;;;;;;5050659;28;20467;-53
2024/03/18 12:12:49;;;;;;;4.75;2.00;;;;;;;;;;5050871;28;20500;-58
2024/03/18 12:15:16;;;;;;;5.80;2.35;;;;;;;;;;5050848;28;20049;-55
2024/03/18 12:17:43;;;;;;;5.75;2.63;;;;;;;;;;5050380;28;20056;-57
2024/03/18 12:20:23;;;;;;;4.72;2.20;;;;;;;;;;5050023;28;20091;-59
2024/03/18 12:23:02;;;;;;;4.18;2.13;;;;;;;;;;5050323;28;20040;-58
2024/03/18 12:31:04;;;;;;;6.00;2.63;;;;;;;;;;5030376;28;20058;-59
2024/03/18 12:33:32;;;;;;;5.38;2.90;;;;;;;;;;5030709;28;20099;-56
2024/03/18 12:36:03;;;;;;;7.15;2.85;;;;;;;;;;5046915;28;20049;-59
2024/03/18 12:38:37;;;;;;;5.15;2.70;;;;;;;;;;5050590;28;20049;-55
2024/03/18 12:41:04;;;;;;;6.07;2.60;;;;;;;;;;5049983;28;20099;-57
2024/03/18 12:43:32;;;;;;;5.15;2.70;;;;;;;;;;5050480;28;20049;-58
2024/03/18 12:46:00;;;;;;;6.68;3.20;;;;;;;;;;5050044;28;20049;-57
2024/03/18 12:48:28;;;;;;;4.78;3.08;;;;;;;;;;5053658;28;20055;-59
2024/03/18 12:50:55;;;;;;;5.32;3.20;;;;;;;;;;5069997;28;20056;-57
2024/03/18 12:53:23;;;;;;;6.78;3.65;;;;;;;;;;5058451;28;20051;-53
2024/03/18 12:55:50;;;;;;;6.25;3.55;;;;;;;;;;5050402;28;20052;-59
2024/03/18 12:58:19;;;;;;;6.57;4.03;;;;;;;;;;5049853;28;20064;-57
2024/03/18 13:00:46;;;;;;;7.07;3.15;;;;;;;;;;5049593;28;20115;-58
2024/03/18 13:03:15;;;;;;;7.43;3.47;;;;;;;;;;5049861;28;20056;-54
2024/03/18 13:05:42;;;;;;;5.85;3.88;;;;;;;;;;5049812;28;20041;-60
2024/03/18 13:08:13;;;;;;;6.82;3.72;;;;;;;;;;5049827;28;20205;-56
2024/03/18 13:10:41;;;;;;;8.50;4.20;;;;;;;;;;5042419;28;20052;-57
2024/03/18 13:13:11;;;;;;;8.05;4.65;;;;;;;;;;5037621;28;20045;-65
2024/03/18 13:15:42;;;;;;;8.05;4.57;;;;;;;;;;5034382;28;20057;-66
2024/03/18 13:18:10;;;;;;;7.63;4.68;;;;;;;;;;5039678;28;20127;-62
2024/03/18 13:20:37;;;;;;;9.32;4.78;;;;;;;;;;5037630;28;20122;-54
2024/03/18 13:23:05;;;;;;;8.13;4.90;;;;;;;;;;5029817;28;20046;-55
2024/03/18 13:25:32;;;;;;;8.57;4.80;;;;;;;;;;5031818;28;20087;-56
2024/03/18 13:28:00;;;;;;;8.68;5.05;;;;;;;;;;5043401;28;20052;-58
2024/03/18 13:30:27;;;;;;;9.23;4.95;;;;;;;;;;5039023;28;20053;-54
2024/03/18 13:32:54;;;;;;;8.02;5.00;;;;;;;;;;5040282;28;20049;-55
2024/03/18 13:35:24;;;;;;;8.60;5.35;;;;;;;;;;5046778;28;20064;-55
2024/03/18 13:37:51;;;;;;;10.88;5.60;;;;;;;;;;5037176;28;20081;-55
2024/03/18 13:40:19;;;;;;;9.00;5.55;;;;;;;;;;5043361;28;20063;-57
2024/03/18 13:42:47;;;;;;;8.68;5.32;;;;;;;;;;5045986;28;20095;-54
2024/03/18 13:45:15;;;;;;;8.93;5.20;;;;;;;;;;5046675;28;20049;-54
2024/03/18 13:47:42;;;;;;;9.27;5.32;;;;;;;;;;5033942;28;20608;-59
2024/03/18 13:50:10;;;;;;;10.48;5.13;;;;;;;;;;5038566;28;20050;-56
2024/03/18 13:52:37;;;;;;;9.77;6.00;;;;;;;;;;5045980;28;20501;-56
2024/03/18 13:55:06;;;;;;;9.93;6.53;;;;;;;;;;5045465;28;20033;-53
2024/03/18 13:57:33;;;;;;;8.55;5.53;;;;;;;;;;5041415;28;20132;-56
2024/03/18 14:00:04;;;;;;;7.55;5.00;;;;;;;;;;5045156;28;20045;-56
2024/03/18 14:02:32;;;;;;;16.13;6.47;;;;;;;;;;5044334;28;20052;-56
2024/03/18 14:04:59;;;;;;;10.63;5.88;;;;;;;;;;5048740;28;20055;-56
2024/03/18 14:07:26;;;;;;;11.55;5.88;;;;;;;;;;5045183;28;20061;-56
2024/03/18 14:09:53;;;;;;;9.43;5.93;;;;;;;;;;5052414;28;20049;-56
2024/03/18 14:12:22;;;;;;;12.50;6.47;;;;;;;;;;5046013;28;20625;-57
2024/03/18 14:14:49;;;;;;;11.52;6.20;;;;;;;;;;5036477;28;20158;-56
2024/03/18 14:17:16;;;;;;;9.60;5.68;;;;;;;;;;5043514;28;20100;-54
2024/03/18 14:19:45;;;;;;;10.20;5.38;;;;;;;;;;5046865;28;20455;-55
2024/03/18 14:22:12;;;;;;;9.52;6.30;;;;;;;;;;5052404;28;20397;-53
2024/03/18 14:24:44;;;;;;;9.07;5.25;;;;;;;;;;5051974;28;20132;-55
2024/03/18 14:27:11;;;;;;;8.85;6.40;;;;;;;;;;5052330;28;20065;-56
2024/03/18 14:29:39;;;;;;;8.50;5.05;;;;;;;;;;5051809;28;20059;-56
2024/03/18 14:32:07;;;;;;;7.32;4.45;;;;;;;;;;5051065;28;20055;-56
2024/03/18 14:34:35;;;;;;;8.70;4.95;;;;;;;;;;5051069;28;20148;-53
2024/03/18 14:37:04;;;;;;;8.48;5.22;;;;;;;;;;5036671;28;20055;-56
2024/03/18 14:39:31;;;;;;;9.20;5.70;;;;;;;;;;5043847;28;20084;-56
2024/03/18 14:41:59;;;;;;;10.55;5.97;;;;;;;;;;5040207;28;20055;-58
2024/03/18 14:44:27;;;;;;;10.27;6.32;;;;;;;;;;5049687;28;20095;-55
2024/03/18 14:46:54;;;;;;;8.93;6.30;;;;;;;;;;5050654;28;20076;-54
2024/03/18 14:49:21;;;;;;;10.68;7.70;;;;;;;;;;5048883;28;20063;-53
2024/03/18 14:51:48;;;;;;;9.95;6.28;;;;;;;;;;5046494;28;20496;-57